KLM1214 ENBR-ENGM
Flight info
| Callsign | KLM1214 |
|---|---|
| Flight time | 0h 40m |
| Altitude | 31000 |
| Route | GOKAB DCT ULVAN DCT ADOPI |
| Aircraft | A333/H-SDE3GHIJ2J3J5M1RVWXY/LB2D1 |
Departure
| Time | 2026-05-05 19:18 |
|---|---|
| Airport | Bergen Airport, Flesland (ENBR) |
Arrival
| Time | 2026-05-05 19:58 |
|---|---|
| Airport | Oslo-Gardermoen International Airport (ENGM) |
| Time | Latitude | Longitude | Altitude | Speed | Heading |
|---|---|---|---|---|---|
| 2026-05-05 19:00 | 60.28936 | 5.22521 | 154 ft | 0 kts | 116° |
| 2026-05-05 19:07 | 60.28938 | 5.22516 | 154 ft | 3 kts | 116° |
| 2026-05-05 19:07 | 60.28947 | 5.22483 | 154 ft | 3 kts | 125° |
| 2026-05-05 19:08 | 60.28958 | 5.22453 | 155 ft | 3 kts | 125° |
| 2026-05-05 19:08 | 60.28969 | 5.22423 | 155 ft | 3 kts | 109° |
| 2026-05-05 19:08 | 60.28971 | 5.22383 | 155 ft | 3 kts | 61° |
| 2026-05-05 19:08 | 60.28962 | 5.22357 | 155 ft | 0 kts | 21° |
| 2026-05-05 19:12 | 60.28963 | 5.22358 | 155 ft | 3 kts | 20° |
| 2026-05-05 19:12 | 60.29017 | 5.22364 | 155 ft | 12 kts | 358° |
| 2026-05-05 19:12 | 60.29065 | 5.22328 | 156 ft | 9 kts | 318° |
| 2026-05-05 19:13 | 60.29062 | 5.22277 | 156 ft | 3 kts | 227° |
| 2026-05-05 19:13 | 60.29021 | 5.22251 | 155 ft | 13 kts | 190° |
| 2026-05-05 19:13 | 60.28927 | 5.22265 | 154 ft | 13 kts | 161° |
| 2026-05-05 19:13 | 60.28803 | 5.22326 | 153 ft | 22 kts | 170° |
| 2026-05-05 19:14 | 60.28648 | 5.22373 | 152 ft | 24 kts | 171° |
| 2026-05-05 19:14 | 60.28476 | 5.22429 | 151 ft | 21 kts | 171° |
| 2026-05-05 19:14 | 60.28338 | 5.22468 | 149 ft | 14 kts | 188° |
| 2026-05-05 19:14 | 60.28302 | 5.22335 | 149 ft | 11 kts | 278° |
| 2026-05-05 19:15 | 60.28306 | 5.22207 | 150 ft | 8 kts | 293° |
| 2026-05-05 19:15 | 60.28327 | 5.22167 | 150 ft | 4 kts | 327° |
| 2026-05-05 19:15 | 60.28362 | 5.22143 | 151 ft | 5 kts | 347° |
| 2026-05-05 19:15 | 60.28375 | 5.22138 | 151 ft | 1 kts | 351° |
| 2026-05-05 19:16 | 60.28386 | 5.22134 | 151 ft | 2 kts | 351° |
| 2026-05-05 19:16 | 60.28393 | 5.22132 | 151 ft | 0 kts | 351° |
| 2026-05-05 19:17 | 60.28410 | 5.22126 | 151 ft | 19 kts | 350° |
| 2026-05-05 19:17 | 60.28786 | 5.21998 | 153 ft | 89 kts | 351° |
| 2026-05-05 19:17 | 60.29596 | 5.21724 | 166 ft | 144 kts | 348° |
| 2026-05-05 19:18 | 60.30582 | 5.21383 | 840 ft | 141 kts | 348° |
| 2026-05-05 19:18 | 60.31559 | 5.21024 | 1602 ft | 147 kts | 348° |
| 2026-05-05 19:18 | 60.32621 | 5.20620 | 2204 ft | 164 kts | 348° |
| 2026-05-05 19:18 | 60.33835 | 5.20161 | 2875 ft | 179 kts | 348° |
| 2026-05-05 19:19 | 60.35115 | 5.19747 | 3272 ft | 207 kts | 350° |
| 2026-05-05 19:19 | 60.36683 | 5.19266 | 3714 ft | 235 kts | 350° |
| 2026-05-05 19:19 | 60.38340 | 5.18741 | 4458 ft | 248 kts | 350° |
| 2026-05-05 19:19 | 60.40062 | 5.18180 | 5456 ft | 252 kts | 349° |
| 2026-05-05 19:20 | 60.41960 | 5.17547 | 6614 ft | 254 kts | 349° |
| 2026-05-05 19:20 | 60.43700 | 5.16967 | 7630 ft | 259 kts | 349° |
| 2026-05-05 19:20 | 60.45583 | 5.16769 | 8687 ft | 266 kts | 2° |
| 2026-05-05 19:20 | 60.46828 | 5.17298 | 9392 ft | 273 kts | 16° |
| 2026-05-05 19:21 | 60.48710 | 5.19036 | 10374 ft | 285 kts | 27° |
| 2026-05-05 19:21 | 60.50277 | 5.21719 | 10807 ft | 314 kts | 50° |
| 2026-05-05 19:21 | 60.51171 | 5.25950 | 11377 ft | 337 kts | 79° |
| 2026-05-05 19:21 | 60.51123 | 5.30814 | 12189 ft | 348 kts | 96° |
| 2026-05-05 19:22 | 60.50758 | 5.35808 | 13032 ft | 355 kts | 97° |
| 2026-05-05 19:22 | 60.50359 | 5.41025 | 13871 ft | 362 kts | 97° |
| 2026-05-05 19:22 | 60.49982 | 5.46250 | 14591 ft | 369 kts | 96° |
| 2026-05-05 19:22 | 60.49621 | 5.51517 | 15326 ft | 375 kts | 96° |
| 2026-05-05 19:23 | 60.49267 | 5.56829 | 16065 ft | 380 kts | 96° |
| 2026-05-05 19:23 | 60.48906 | 5.62296 | 16808 ft | 386 kts | 96° |
| 2026-05-05 19:23 | 60.48547 | 5.67762 | 17517 ft | 392 kts | 97° |
| 2026-05-05 19:23 | 60.48179 | 5.73339 | 18206 ft | 397 kts | 97° |
| 2026-05-05 19:24 | 60.47815 | 5.78872 | 18746 ft | 404 kts | 97° |
| 2026-05-05 19:24 | 60.47432 | 5.84652 | 19261 ft | 413 kts | 97° |
| 2026-05-05 19:24 | 60.47036 | 5.90571 | 19731 ft | 420 kts | 97° |
| 2026-05-05 19:24 | 60.46638 | 5.96487 | 20197 ft | 428 kts | 98° |
| 2026-05-05 19:25 | 60.46219 | 6.02672 | 20687 ft | 436 kts | 98° |
| 2026-05-05 19:25 | 60.45801 | 6.08815 | 21165 ft | 444 kts | 98° |
| 2026-05-05 19:25 | 60.45371 | 6.15058 | 21660 ft | 450 kts | 98° |
| 2026-05-05 19:25 | 60.44926 | 6.21483 | 22122 ft | 458 kts | 98° |
| 2026-05-05 19:26 | 60.44637 | 6.25648 | 22417 ft | 462 kts | 98° |
| 2026-05-05 19:26 | 60.44172 | 6.32308 | 22936 ft | 469 kts | 99° |
| 2026-05-05 19:26 | 60.43704 | 6.38977 | 23418 ft | 472 kts | 99° |
| 2026-05-05 19:26 | 60.43308 | 6.45666 | 24046 ft | 472 kts | 96° |
| 2026-05-05 19:27 | 60.43043 | 6.52374 | 24479 ft | 477 kts | 94° |
| 2026-05-05 19:27 | 60.42843 | 6.59248 | 24765 ft | 485 kts | 93° |
| 2026-05-05 19:27 | 60.42674 | 6.66142 | 25145 ft | 491 kts | 92° |
| 2026-05-05 19:27 | 60.42508 | 6.73118 | 25575 ft | 494 kts | 93° |
| 2026-05-05 19:28 | 60.42328 | 6.80302 | 26053 ft | 498 kts | 93° |
| 2026-05-05 19:28 | 60.42138 | 6.87409 | 26492 ft | 501 kts | 94° |
| 2026-05-05 19:28 | 60.41937 | 6.94498 | 26916 ft | 504 kts | 94° |
| 2026-05-05 19:28 | 60.41723 | 7.01702 | 27341 ft | 507 kts | 94° |
| 2026-05-05 19:29 | 60.41488 | 7.09310 | 27761 ft | 511 kts | 94° |
| 2026-05-05 19:29 | 60.41274 | 7.16093 | 28137 ft | 513 kts | 95° |
| 2026-05-05 19:29 | 60.41038 | 7.23403 | 28570 ft | 517 kts | 95° |
| 2026-05-05 19:29 | 60.40798 | 7.30720 | 29005 ft | 518 kts | 95° |
| 2026-05-05 19:30 | 60.40558 | 7.37951 | 29571 ft | 517 kts | 95° |
| 2026-05-05 19:30 | 60.40309 | 7.45344 | 30117 ft | 517 kts | 95° |
| 2026-05-05 19:30 | 60.40064 | 7.52549 | 30611 ft | 515 kts | 95° |
| 2026-05-05 19:30 | 60.39809 | 7.59907 | 30914 ft | 519 kts | 95° |
| 2026-05-05 19:31 | 60.39292 | 7.74491 | 30965 ft | 511 kts | 95° |
| 2026-05-05 19:31 | 60.38755 | 7.89117 | 30702 ft | 523 kts | 96° |
| 2026-05-05 19:32 | 60.38481 | 7.96435 | 30332 ft | 524 kts | 96° |
| 2026-05-05 19:32 | 60.38190 | 8.04082 | 29900 ft | 522 kts | 96° |
| 2026-05-05 19:32 | 60.37909 | 8.11398 | 29417 ft | 520 kts | 96° |
| 2026-05-05 19:32 | 60.37729 | 8.16016 | 29124 ft | 519 kts | 96° |
| 2026-05-05 19:33 | 60.37432 | 8.23552 | 28660 ft | 515 kts | 96° |
| 2026-05-05 19:33 | 60.37139 | 8.30864 | 28212 ft | 512 kts | 96° |
| 2026-05-05 19:33 | 60.36849 | 8.37996 | 27759 ft | 509 kts | 96° |
| 2026-05-05 19:33 | 60.36564 | 8.44922 | 27347 ft | 506 kts | 96° |
| 2026-05-05 19:34 | 60.36265 | 8.52088 | 26905 ft | 503 kts | 96° |
| 2026-05-05 19:34 | 60.35955 | 8.59445 | 26468 ft | 500 kts | 96° |
| 2026-05-05 19:34 | 60.35659 | 8.66364 | 26070 ft | 497 kts | 96° |
| 2026-05-05 19:35 | 60.35045 | 8.80465 | 25265 ft | 492 kts | 96° |
| 2026-05-05 19:35 | 60.34737 | 8.87375 | 24858 ft | 491 kts | 96° |
| 2026-05-05 19:35 | 60.34405 | 8.94793 | 24428 ft | 489 kts | 96° |
| 2026-05-05 19:35 | 60.34104 | 9.01406 | 24053 ft | 486 kts | 96° |
| 2026-05-05 19:36 | 60.33788 | 9.08293 | 23683 ft | 484 kts | 96° |
| 2026-05-05 19:36 | 60.33462 | 9.15291 | 23234 ft | 481 kts | 96° |
| 2026-05-05 19:36 | 60.33139 | 9.22013 | 22778 ft | 475 kts | 96° |
| 2026-05-05 19:36 | 60.32809 | 9.28984 | 22304 ft | 466 kts | 96° |
| 2026-05-05 19:37 | 60.32610 | 9.33151 | 22009 ft | 462 kts | 96° |
| 2026-05-05 19:37 | 60.32014 | 9.41824 | 21408 ft | 452 kts | 102° |
| 2026-05-05 19:37 | 60.31382 | 9.47946 | 20991 ft | 445 kts | 103° |
| 2026-05-05 19:37 | 60.30722 | 9.54079 | 20551 ft | 438 kts | 103° |
| 2026-05-05 19:38 | 60.30295 | 9.58035 | 20280 ft | 434 kts | 103° |
| 2026-05-05 19:38 | 60.29628 | 9.64209 | 19844 ft | 427 kts | 103° |
| 2026-05-05 19:38 | 60.29001 | 9.70018 | 19439 ft | 421 kts | 103° |
| 2026-05-05 19:38 | 60.28385 | 9.75716 | 19027 ft | 414 kts | 103° |
| 2026-05-05 19:39 | 60.27723 | 9.81823 | 18603 ft | 407 kts | 103° |
| 2026-05-05 19:39 | 60.26955 | 9.86856 | 18245 ft | 399 kts | 118° |
| 2026-05-05 19:39 | 60.25479 | 9.91559 | 17934 ft | 386 kts | 129° |
| 2026-05-05 19:39 | 60.23919 | 9.95793 | 17887 ft | 370 kts | 130° |
| 2026-05-05 19:40 | 60.22395 | 9.99879 | 17887 ft | 357 kts | 130° |
| 2026-05-05 19:40 | 60.20897 | 10.03915 | 17877 ft | 346 kts | 130° |
| 2026-05-05 19:40 | 60.19439 | 10.07863 | 17533 ft | 342 kts | 130° |
| 2026-05-05 19:40 | 60.18028 | 10.11691 | 16995 ft | 344 kts | 130° |
| 2026-05-05 19:41 | 60.16605 | 10.15554 | 16447 ft | 346 kts | 129° |
| 2026-05-05 19:41 | 60.15176 | 10.19442 | 15913 ft | 344 kts | 129° |
| 2026-05-05 19:41 | 60.13523 | 10.22959 | 15352 ft | 329 kts | 150° |
| 2026-05-05 19:41 | 60.11458 | 10.24508 | 14831 ft | 309 kts | 180° |
| 2026-05-05 19:42 | 60.09386 | 10.23882 | 14316 ft | 290 kts | 206° |
| 2026-05-05 19:42 | 60.07605 | 10.22288 | 13801 ft | 283 kts | 210° |
| 2026-05-05 19:42 | 60.05753 | 10.20584 | 13209 ft | 280 kts | 208° |
| 2026-05-05 19:42 | 60.03925 | 10.19031 | 12644 ft | 277 kts | 206° |
| 2026-05-05 19:43 | 60.02715 | 10.18262 | 12312 ft | 277 kts | 195° |
| 2026-05-05 19:43 | 60.00177 | 10.17912 | 11928 ft | 266 kts | 185° |
| 2026-05-05 19:43 | 59.99042 | 10.17907 | 11652 ft | 265 kts | 184° |
| 2026-05-05 19:43 | 59.96925 | 10.17939 | 11067 ft | 263 kts | 183° |
| 2026-05-05 19:44 | 59.95082 | 10.17978 | 10602 ft | 260 kts | 182° |
| 2026-05-05 19:44 | 59.93313 | 10.18013 | 10157 ft | 258 kts | 182° |
| 2026-05-05 19:44 | 59.91424 | 10.18394 | 9834 ft | 255 kts | 168° |
| 2026-05-05 19:44 | 59.89667 | 10.19514 | 9547 ft | 256 kts | 162° |
| 2026-05-05 19:45 | 59.87871 | 10.20855 | 9247 ft | 254 kts | 161° |
| 2026-05-05 19:45 | 59.86406 | 10.21966 | 8988 ft | 253 kts | 161° |
| 2026-05-05 19:45 | 59.84771 | 10.23198 | 8731 ft | 252 kts | 161° |
| 2026-05-05 19:45 | 59.83035 | 10.24498 | 8570 ft | 251 kts | 161° |
| 2026-05-05 19:46 | 59.81309 | 10.26049 | 8418 ft | 252 kts | 150° |
| 2026-05-05 19:46 | 59.79967 | 10.27919 | 8304 ft | 252 kts | 144° |
| 2026-05-05 19:46 | 59.78522 | 10.30162 | 8142 ft | 252 kts | 143° |
| 2026-05-05 19:46 | 59.77288 | 10.32606 | 8022 ft | 253 kts | 125° |
| 2026-05-05 19:47 | 59.76658 | 10.35872 | 7868 ft | 253 kts | 95° |
| 2026-05-05 19:47 | 59.76948 | 10.39362 | 7744 ft | 250 kts | 63° |
| 2026-05-05 19:47 | 59.77953 | 10.42139 | 7633 ft | 250 kts | 49° |
| 2026-05-05 19:47 | 59.78739 | 10.44102 | 7536 ft | 267 kts | 50° |
| 2026-05-05 19:48 | 59.79896 | 10.47030 | 7369 ft | 260 kts | 50° |
| 2026-05-05 19:48 | 59.81067 | 10.49993 | 7201 ft | 251 kts | 50° |
| 2026-05-05 19:48 | 59.81986 | 10.52313 | 7031 ft | 246 kts | 50° |
| 2026-05-05 19:48 | 59.83049 | 10.54995 | 6855 ft | 240 kts | 50° |
| 2026-05-05 19:49 | 59.84069 | 10.57576 | 6670 ft | 232 kts | 50° |
| 2026-05-05 19:49 | 59.84784 | 10.59432 | 6517 ft | 226 kts | 51° |
| 2026-05-05 19:49 | 59.85963 | 10.62578 | 6277 ft | 222 kts | 52° |
| 2026-05-05 19:49 | 59.86910 | 10.65144 | 6131 ft | 221 kts | 52° |
| 2026-05-05 19:50 | 59.87821 | 10.67623 | 5993 ft | 221 kts | 52° |
| 2026-05-05 19:50 | 59.88717 | 10.70068 | 5876 ft | 220 kts | 52° |
| 2026-05-05 19:50 | 59.89656 | 10.72636 | 5662 ft | 219 kts | 52° |
| 2026-05-05 19:50 | 59.90639 | 10.75337 | 5549 ft | 218 kts | 53° |
| 2026-05-05 19:51 | 59.91496 | 10.77697 | 5547 ft | 216 kts | 53° |
| 2026-05-05 19:51 | 59.92074 | 10.79316 | 5546 ft | 205 kts | 54° |
| 2026-05-05 19:51 | 59.92608 | 10.80891 | 5554 ft | 199 kts | 55° |
| 2026-05-05 19:51 | 59.93630 | 10.83946 | 5537 ft | 196 kts | 50° |
| 2026-05-05 19:52 | 59.94537 | 10.85673 | 5511 ft | 195 kts | 41° |
| 2026-05-05 19:52 | 59.95683 | 10.87872 | 5342 ft | 195 kts | 44° |
| 2026-05-05 19:52 | 59.96637 | 10.89904 | 5085 ft | 194 kts | 46° |
| 2026-05-05 19:52 | 59.97575 | 10.92071 | 4830 ft | 193 kts | 48° |
| 2026-05-05 19:53 | 59.98427 | 10.94131 | 4616 ft | 192 kts | 49° |
| 2026-05-05 19:53 | 59.99381 | 10.96048 | 4336 ft | 190 kts | 33° |
| 2026-05-05 19:53 | 60.00574 | 10.97160 | 4049 ft | 186 kts | 16° |
| 2026-05-05 19:53 | 60.01815 | 10.97872 | 3782 ft | 181 kts | 12° |
| 2026-05-05 19:54 | 60.03062 | 10.98558 | 3517 ft | 180 kts | 13° |
| 2026-05-05 19:54 | 60.03929 | 10.99049 | 3487 ft | 178 kts | 13° |
| 2026-05-05 19:54 | 60.05071 | 10.99695 | 3424 ft | 164 kts | 12° |
| 2026-05-05 19:54 | 60.06150 | 11.00306 | 3065 ft | 159 kts | 12° |
| 2026-05-05 19:55 | 60.07220 | 11.00913 | 2918 ft | 159 kts | 12° |
| 2026-05-05 19:55 | 60.08296 | 11.01526 | 2752 ft | 160 kts | 12° |
| 2026-05-05 19:55 | 60.09388 | 11.02150 | 2587 ft | 159 kts | 12° |
| 2026-05-05 19:55 | 60.10552 | 11.02819 | 2405 ft | 157 kts | 12° |
| 2026-05-05 19:56 | 60.11538 | 11.03385 | 2174 ft | 142 kts | 12° |
| 2026-05-05 19:56 | 60.12447 | 11.03906 | 1975 ft | 133 kts | 12° |
| 2026-05-05 19:56 | 60.13323 | 11.04405 | 1810 ft | 133 kts | 11° |
| 2026-05-05 19:56 | 60.14260 | 11.04941 | 1596 ft | 134 kts | 12° |
| 2026-05-05 19:57 | 60.15157 | 11.05458 | 1397 ft | 134 kts | 13° |
| 2026-05-05 19:57 | 60.15441 | 11.05619 | 1339 ft | 134 kts | 13° |
| 2026-05-05 19:57 | 60.17023 | 11.06499 | 1039 ft | 135 kts | 14° |
| 2026-05-05 19:57 | 60.17925 | 11.07040 | 839 ft | 135 kts | 16° |
| 2026-05-05 19:58 | 60.18819 | 11.07553 | 688 ft | 131 kts | 13° |
| 2026-05-05 19:58 | 60.19582 | 11.07992 | 680 ft | 99 kts | 17° |
| 2026-05-05 19:58 | 60.20085 | 11.08295 | 680 ft | 36 kts | 24° |
| 2026-05-05 19:58 | 60.20192 | 11.08405 | 676 ft | 20 kts | 33° |
| 2026-05-05 19:59 | 60.20224 | 11.08454 | 677 ft | 6 kts | 43° |
| 2026-05-05 19:59 | 60.20239 | 11.08491 | 680 ft | 2 kts | 56° |
| 2026-05-05 19:59 | 60.20246 | 11.08536 | 678 ft | 7 kts | 77° |
| 2026-05-05 19:59 | 60.20230 | 11.08760 | 681 ft | 18 kts | 104° |
| 2026-05-05 20:00 | 60.20192 | 11.09004 | 680 ft | 18 kts | 108° |
| 2026-05-05 20:00 | 60.20159 | 11.09247 | 681 ft | 19 kts | 104° |
| 2026-05-05 20:00 | 60.20126 | 11.09498 | 676 ft | 20 kts | 106° |
| 2026-05-05 20:00 | 60.20084 | 11.09782 | 677 ft | 21 kts | 108° |
| 2026-05-05 20:01 | 60.20038 | 11.10084 | 678 ft | 22 kts | 105° |
| 2026-05-05 20:01 | 60.20010 | 11.10285 | 678 ft | 22 kts | 105° |
| 2026-05-05 20:01 | 60.19955 | 11.10556 | 680 ft | 13 kts | 143° |
| 2026-05-05 20:01 | 60.19880 | 11.10564 | 680 ft | 10 kts | 194° |
| 2026-05-05 20:02 | 60.19785 | 11.10511 | 677 ft | 16 kts | 195° |
| 2026-05-05 20:02 | 60.19673 | 11.10446 | 678 ft | 17 kts | 197° |
| 2026-05-05 20:02 | 60.19564 | 11.10415 | 680 ft | 8 kts | 157° |
| 2026-05-05 20:02 | 60.19531 | 11.10477 | 681 ft | 6 kts | 136° |
| 2026-05-05 20:03 | 60.19493 | 11.10499 | 677 ft | 6 kts | 179° |
| 2026-05-05 20:03 | 60.19456 | 11.10484 | 678 ft | 6 kts | 193° |
| 2026-05-05 20:03 | 60.19438 | 11.10475 | 678 ft | 0 kts | 193° |